Latest Weather Observations for Truscott

IDD60801

Issued at 11:05 pm CST Sunday 20 April 2014 (issued every 30 minutes, with the page automatically refreshed every 10 minutes)

About weather observations | Map of weather stations | Latest weather observations for NT | Other Formats
Station Details ID: 001020 Name: TRUSCOTT Lat: -14.09 Lon: 126.39 Height: 51.0 m
Data from the previous 72 hours. | See also: Recent months at Truscott
Date/Time
CST
Temp
°C
App
Temp
°C
Dew
Point
Rel
Hum
%
Delta-T
°C
Wind Press
QNH
hPa
Press
MSL
hPa
Rain
since 9 am
mm
Dir
 
Spd
km/h
Gust
km/h
Spd
kts
Gust
kts
20/11:00pm 27.4 29.5 20.2 65 4.7 ENE 9 15 5 8 1010.9 - 0.0
20/10:30pm 27.5 29.6 20.1 64 4.9 ENE 9 15 5 8 1011.0 1010.5 0.0
20/10:00pm 27.3 29.6 20.6 67 4.4 ENE 9 13 5 7 1011.0 - 0.0
20/09:30pm 27.6 30.3 21.4 69 4.1 ENE 9 13 5 7 1010.8 - 0.0
20/09:00pm 27.9 30.8 21.7 69 4.2 ENE 9 13 5 7 1010.6 - 0.0
20/08:30pm 28.1 30.9 21.6 68 4.4 ENE 9 15 5 8 1010.2 - 0.0
20/08:00pm 28.5 30.8 21.3 65 4.8 NE 11 15 6 8 1009.7 - 0.0
20/07:30pm 28.8 31.1 21.3 64 5.0 NE 11 19 6 10 1009.4 1008.9 0.0
20/07:00pm 29.4 31.6 21.1 61 5.5 NE 11 19 6 10 1009.1 - 0.0
20/06:30pm 30.2 31.6 20.4 55 6.5 NE 13 24 7 13 1008.8 - 0.0
20/06:00pm 31.0 32.2 20.0 52 7.3 NE 13 20 7 11 1008.5 - 0.0
20/05:30pm 31.7 32.0 19.7 49 7.9 NE 17 24 9 13 1008.1 - 0.0
20/05:00pm 32.3 32.5 18.5 44 9.0 ENE 15 22 8 12 1007.9 - 0.0
20/04:30pm 32.3 32.4 19.2 46 8.6 NE 17 24 9 13 1007.8 1007.3 0.0
20/04:00pm 32.1 33.2 20.4 50 7.8 ENE 15 26 8 14 1007.8 - 0.0
20/03:30pm 32.6 33.0 19.8 46 8.5 ENE 17 24 9 13 1007.8 - 0.0
20/03:00pm 33.1 33.6 19.2 43 9.1 NE 15 26 8 14 1008.0 - 0.0
20/02:30pm 33.0 34.2 19.8 45 8.7 E 13 20 7 11 1008.3 - 0.0
20/02:00pm 32.5 32.7 19.4 46 8.6 E 17 24 9 13 1008.6 - 0.0
20/01:30pm 32.4 33.6 20.0 48 8.2 E 13 20 7 11 1009.1 1008.6 0.0
20/01:00pm 32.0 32.6 20.3 50 7.8 E 17 28 9 15 1009.7 - 0.0
20/12:30pm 31.3 31.7 19.9 50 7.5 E 17 26 9 14 1010.4 - 0.0
20/12:00pm 30.7 31.0 20.3 53 6.9 E 19 30 10 16 1010.7 - 0.0
20/11:30am 30.4 30.3 20.0 53 6.9 E 20 32 11 17 1011.0 - 0.0
20/11:00am 30.4 30.7 19.7 52 7.0 E 17 30 9 16 1011.2 - 0.0
20/10:30am 30.0 28.8 17.1 46 8.2 E 19 28 10 15 1011.4 1010.9 0.0
20/10:00am 29.0 27.2 14.4 41 8.8 ESE 17 26 9 14 1011.3 - 0.0
20/09:30am 28.9 27.1 13.2 38 9.3 ESE 15 20 8 11 1011.1 - 0.0
20/09:00am 28.4 26.8 12.7 38 9.2 ESE 13 20 7 11 1011.0 - 0.0
20/08:30am 27.5 25.8 12.3 39 8.8 ESE 13 20 7 11 1010.7 - 0.0
20/08:00am 26.6 25.1 11.9 40 8.5 SE 11 17 6 9 1010.4 - 0.0
20/07:30am 25.7 24.4 12.5 44 7.6 SE 11 15 6 8 1010.1 1009.6 0.0
20/07:00am 25.4 24.6 12.9 45 7.3 SE 9 13 5 7 1009.8 - 0.0
20/06:30am 25.8 25.1 13.3 46 7.3 SE 9 15 5 8 1009.4 - 0.0
20/06:00am 26.2 25.7 13.7 46 7.4 SE 9 13 5 7 1009.2 - 0.0
20/05:30am 25.8 25.4 14.0 48 7.0 SE 9 11 5 6 1009.1 - 0.0
20/05:00am 26.4 26.0 14.2 47 7.3 SSE 9 13 5 7 1008.9 - 0.0
20/04:30am 25.7 25.9 15.7 54 6.1 SSE 9 11 5 6 1008.9 1008.4 0.0
20/04:00am 25.6 26.0 16.4 56 5.7 SSE 9 11 5 6 1009.0 - 0.0
20/03:51am 25.4 26.0 16.8 59 5.3 SSE 9 11 5 6 1009.1 - 0.0
20/03:39am 25.4 26.5 17.1 60 5.2 SE 7 9 4 5 1009.1 - 0.0
20/03:30am 25.5 26.7 17.4 61 5.1 SE 7 11 4 6 1009.2 - 0.0
20/03:00am 25.3 26.9 18.2 64 4.5 SE 7 11 4 6 1009.3 - 0.0
20/02:30am 25.0 26.9 18.9 69 3.9 SE 7 9 4 5 1009.5 - 0.0
20/02:00am 24.8 26.9 19.4 72 3.5 SSE 7 9 4 5 1009.9 - 0.0
20/01:30am 24.7 27.2 19.8 74 3.2 SSE 6 7 3 4 1010.3 1009.8 0.0
20/01:00am 25.1 27.5 20.1 74 3.3 SSE 7 9 4 5 1010.4 - 0.0
20/12:30am 25.0 27.9 20.7 77 2.8 SE 6 7 3 4 1010.7 - 0.0
20/12:00am 25.1 27.9 20.4 75 3.1 SE 6 7 3 4 1010.8 - 0.0
 
Date/Time
CST
Temp
°C
App
Temp
°C
Dew
Point
Rel
Hum
%
Delta-T
°C
Wind Press
QNH
hPa
Press
MSL
hPa
Rain
since 9 am
mm
Dir
 
Spd
km/h
Gust
km/h
Spd
kts
Gust
kts
19/11:30pm 26.1 29.2 21.1 74 3.3 SE 6 9 3 5 1010.9 - 0.0
19/11:00pm 26.6 29.9 21.4 73 3.5 ESE 6 9 3 5 1010.9 - 0.0
19/10:30pm 26.7 29.7 21.2 72 3.7 ESE 7 9 4 5 - - 0.0
19/10:00pm 26.5 29.3 20.8 71 3.8 E 7 9 4 5 - - 0.0
19/09:30pm 26.3 29.4 21.1 73 3.4 E 6 7 3 4 - - 0.0
19/09:00pm 27.2 30.4 21.2 69 4.0 ENE 6 7 3 4 1010.3 - 0.0
19/08:30pm 27.9 30.9 21.2 67 4.5 NE 7 11 4 6 1010.0 - 0.0
19/08:00pm 27.4 30.6 21.2 69 4.1 NE 6 9 3 5 1009.7 - 0.0
19/07:30pm 28.9 31.7 20.4 60 5.6 NE 6 9 3 5 1009.4 1008.9 0.0
19/07:00pm 30.0 32.2 19.7 54 6.8 ENE 7 13 4 7 1009.2 - 0.0
19/06:30pm 31.1 32.4 19.4 49 7.7 ENE 11 19 6 10 1008.8 - 0.0
19/06:00pm 31.8 31.9 19.1 47 8.3 E 17 26 9 14 1008.7 - 0.0
19/05:30pm 32.2 32.5 19.5 47 8.4 E 17 26 9 14 1008.4 - 0.0
19/05:00pm 32.4 33.6 20.6 49 7.9 ENE 15 24 8 13 1008.1 - 0.0
19/04:30pm 32.6 33.2 21.1 50 7.8 ENE 19 30 10 16 1007.7 1007.2 0.0
19/04:00pm 33.4 33.7 19.5 44 9.2 ENE 17 30 9 16 1007.7 - 0.0
19/03:30pm 33.6 34.1 19.3 43 9.4 ENE 15 24 8 13 1007.8 - 0.0
19/03:00pm 33.5 33.6 19.9 44 9.0 ENE 19 26 10 14 1008.0 - 0.0
19/02:30pm 33.1 33.4 19.6 45 8.9 E 17 26 9 14 1008.3 - 0.0
19/02:00pm 33.1 32.8 19.2 43 9.1 E 19 28 10 15 1008.8 - 0.0
19/01:30pm 32.8 33.8 20.3 47 8.3 E 15 28 8 15 1009.2 1008.7 0.0
19/01:00pm 32.2 33.3 20.5 50 7.8 E 15 22 8 12 1009.5 - 0.0
19/12:30pm 31.7 33.0 20.9 52 7.2 ESE 15 20 8 11 1010.0 - 0.0
19/12:00pm 30.5 31.0 20.1 53 6.9 ESE 17 28 9 15 1010.7 - 0.0
19/11:30am 30.5 31.3 20.7 55 6.5 E 17 28 9 15 1011.3 - 0.0
19/11:00am 30.7 33.0 22.0 59 5.9 ESE 13 20 7 11 1011.7 - 0.0
19/10:30am 29.6 29.7 18.4 51 7.2 E 15 26 8 14 1011.8 1011.3 0.0
19/10:00am 29.4 28.5 15.9 44 8.4 ESE 15 22 8 12 1011.9 - 0.0
19/09:30am 28.4 28.2 15.7 46 7.8 ESE 11 19 6 10 1011.8 - 0.0
19/09:00am 27.4 27.8 16.4 51 6.8 SE 9 17 5 9 - - 0.0
19/08:30am 26.2 27.3 17.0 57 5.7 ESE 7 11 4 6 1011.9 - 0.0
19/08:00am 26.3 27.4 16.5 54 6.1 SE 6 9 3 5 1011.6 - 0.0
19/07:30am 26.3 27.5 17.4 58 5.6 SE 7 11 4 6 1011.3 1010.8 0.0
19/07:00am 26.2 27.4 17.3 58 5.6 ESE 7 11 4 6 1011.3 - 0.0
19/06:30am 27.1 27.3 16.7 53 6.5 ESE 11 17 6 9 1010.8 - 0.0
19/06:00am 26.5 27.3 17.3 57 5.8 SE 9 13 5 7 1010.5 - 0.0
19/05:30am 25.3 28.7 19.4 70 3.8 CALM 0 6 0 3 1010.6 - 0.0
19/05:00am 25.9 30.1 20.9 74 3.3 CALM 0 0 0 0 1010.6 - 0.0
19/04:30am 26.4 29.6 19.8 67 4.3 SSW 2 6 1 3 1010.5 1010.0 0.0
19/04:00am 26.4 29.0 20.0 68 4.2 SSW 6 7 3 4 1010.3 - 0.0
19/03:30am 26.7 29.1 19.6 65 4.6 SSW 6 7 3 4 1010.5 - 0.0
19/03:00am 27.2 29.5 19.8 64 4.8 S 7 7 4 4 1010.6 - 0.0
19/02:30am 27.5 29.9 20.1 64 4.8 S 7 9 4 5 1010.9 - 0.0
19/02:00am 27.6 29.9 19.9 63 5.0 S 7 9 4 5 1011.0 - 0.0
19/01:30am 27.7 29.9 20.5 65 4.7 S 9 11 5 6 1011.3 1010.8 0.0
19/01:00am 27.5 30.6 21.5 70 4.0 SSE 7 9 4 5 1011.5 - 0.0
19/12:30am 27.4 30.7 21.9 72 3.7 SSE 7 9 4 5 1011.9 - 0.0
19/12:00am 26.6 30.4 22.4 78 2.8 SE 6 7 3 4 1012.0 - 0.0
 
Date/Time
CST
Temp
°C
App
Temp
°C
Dew
Point
Rel
Hum
%
Delta-T
°C
Wind Press
QNH
hPa
Press
MSL
hPa
Rain
since 9 am
mm
Dir
 
Spd
km/h
Gust
km/h
Spd
kts
Gust
kts
18/11:30pm 26.9 30.6 22.3 76 3.1 E 6 7 3 4 1012.2 - 0.0
18/11:00pm 26.6 30.0 21.6 74 3.3 ESE 6 7 3 4 1012.2 - 0.0
18/10:30pm 27.0 30.4 21.7 73 3.5 ESE 6 9 3 5 1012.2 1011.7 0.0
18/10:00pm 27.7 31.0 21.5 69 4.1 ESE 6 7 3 4 1012.1 - 0.0
18/09:30pm 28.6 31.7 21.1 64 5.0 E 6 7 3 4 1012.0 - 0.0
18/09:00pm 29.0 31.7 20.7 61 5.5 E 7 9 4 5 1011.6 - 0.0
18/08:30pm 29.5 32.2 21.4 61 5.4 E 9 13 5 7 1011.2 - 0.0
18/08:00pm 29.4 32.5 21.4 62 5.4 E 7 13 4 7 1010.8 - 0.0
18/07:30pm 29.9 32.6 20.7 57 6.1 E 7 11 4 6 1010.3 1009.8 0.0
18/07:00pm 30.6 32.5 20.5 54 6.7 E 11 15 6 8 1010.0 - 0.0
18/06:30pm 31.3 33.2 20.6 53 7.1 E 11 19 6 10 1009.8 - 0.0
18/06:00pm 31.9 33.4 20.5 51 7.6 E 13 22 7 12 1009.5 - 0.0
18/05:30pm 31.4 32.8 20.4 52 7.3 E 13 20 7 11 1009.3 - 0.0
18/05:00pm 32.0 33.8 21.2 52 7.3 E 13 20 7 11 1009.1 - 0.0
18/04:30pm 32.5 34.5 20.7 49 7.9 ENE 11 19 6 10 1009.0 1008.5 0.0
18/04:00pm 32.3 34.5 20.5 49 7.9 ENE 9 15 5 8 1009.1 - 0.0
18/03:30pm 32.9 34.2 20.1 47 8.5 E 13 20 7 11 1009.0 - 0.0
18/03:00pm 32.8 34.0 20.0 47 8.5 E 13 20 7 11 1009.1 - 0.0
18/02:30pm 32.4 33.6 20.6 49 7.9 E 15 24 8 13 1009.6 - 0.0
18/02:00pm 33.1 33.4 20.3 47 8.5 E 19 26 10 14 1009.8 - 0.0
18/01:30pm 33.0 34.5 19.8 45 8.8 E 11 19 6 10 1010.0 1009.5 0.0
18/01:00pm 32.5 32.7 19.4 46 8.6 E 17 26 9 14 1010.5 - 0.0
18/12:30pm 32.2 32.1 18.8 45 8.7 E 17 24 9 13 1010.9 - 0.0
18/12:00pm 32.1 31.8 18.3 44 8.9 E 17 28 9 15 1011.4 - 0.0
18/11:30am 31.8 31.4 18.0 43 8.9 E 17 26 9 14 1011.8 - 0.0
18/11:00am 31.6 31.2 17.1 41 9.2 ESE 15 22 8 12 1012.0 - 0.0
18/10:30am 30.9 30.4 16.9 43 8.9 ESE 15 24 8 13 1012.1 1011.6 0.0
18/10:00am 30.1 28.8 15.8 42 8.9 ESE 17 22 9 12 1012.0 - 0.0
18/09:30am 29.3 27.8 14.3 40 9.1 ESE 15 24 8 13 1011.9 - 0.0
18/09:00am 28.0 27.9 16.0 48 7.4 SE 11 22 6 12 1011.8 - 0.0
18/08:30am 27.6 28.2 15.9 49 7.2 ESE 7 11 4 6 1011.5 - 0.0
18/08:00am 26.6 27.0 15.3 50 6.9 SE 7 13 4 7 1011.2 - 0.0
18/07:30am 25.4 25.6 14.8 52 6.4 SE 7 11 4 6 1010.9 1010.4 0.0
18/07:00am 25.4 25.8 15.4 54 6.1 SE 7 11 4 6 1010.4 - 0.0
18/06:30am 25.8 26.5 15.5 53 6.3 SSE 6 9 3 5 1010.2 - 0.0
18/06:00am 26.2 26.8 15.9 53 6.3 S 7 11 4 6 1010.3 - 0.0
18/05:30am 25.7 26.9 17.4 60 5.2 S 7 9 4 5 1010.2 - 0.0
18/05:00am 25.2 26.2 16.9 60 5.1 SSW 7 9 4 5 1010.2 - 0.0
18/04:30am 25.4 26.6 16.8 59 5.3 SSW 6 7 3 4 1010.1 1009.6 0.0
18/04:00am 25.7 27.0 17.1 59 5.4 SSW 6 9 3 5 1010.2 - 0.0
18/03:30am 25.8 26.9 17.2 59 5.4 SSW 7 9 4 5 1010.3 - 0.0
18/03:00am 25.4 26.7 17.1 60 5.2 SSW 6 7 3 4 1010.6 - 0.0
18/02:30am 25.7 26.5 16.3 56 5.8 SW 7 9 4 5 1010.8 - 0.0
18/02:00am 25.8 26.7 16.6 56 5.7 SSW 7 9 4 5 1011.2 - 0.0
18/01:30am 24.1 26.2 19.0 73 3.3 SSE 6 6 3 3 1011.6 1011.1 0.0
18/01:00am 24.3 27.0 18.7 71 3.6 SE 2 7 1 4 1012.0 - 0.0

Other Formats:

Comma delimited format used in spreadsheet applications
http://www.bom.gov.au/fwo/IDD60801/IDD60801.95101.axf

JavaScript Object Notation format (JSON) in row-major order
http://www.bom.gov.au/fwo/IDD60801/IDD60801.95101.json